Time;durP1;ratioP1;P1;durP2;ratioP2;P2;SDS_P1;SDS_P2;PMS_P1;PMS_P2;Temp;Humidity;BMP_temperature;BMP_pressure;BME280_temperature;BME280_humidity;BME280_pressure;Samples;Min_cycle;Max_cycle;Signal;HPM_P1;HPM_P2
2022/11/23 00:01:13;;;;;;;;;;;;;;;8.73;51.53;100494.81;5073628;28;20481;-36
2022/11/23 00:03:38;;;;;;;;;;;;;;;8.79;50.91;100499.16;5072940;28;19916;-35
2022/11/23 00:06:04;;;;;;;;;;;;;;;8.79;51.42;100497.31;5076282;28;20378;-36
2022/11/23 00:08:30;;;;;;;;;;;;;;;8.81;51.28;100501.63;5078455;28;19921;-35
2022/11/23 00:10:58;;;;;;;;;;;;;;;8.82;51.28;100504.06;5073715;28;19980;-36
2022/11/23 00:13:24;;;;;;;;;;;;;;;8.81;51.23;100506.97;5077154;28;19916;-34
2022/11/23 00:15:49;;;;;;;;;;;;;;;8.79;51.29;100504.50;5073782;28;19985;-37
2022/11/23 00:18:15;;;;;;;;;;;;;;;8.79;51.06;100502.66;5075282;28;20403;-34
2022/11/23 00:20:40;;;;;;;;;;;;;;;8.82;50.98;100497.91;5075716;28;20448;-35
2022/11/23 00:23:05;;;;;;;;;;;;;;;8.86;51.37;100493.69;5080281;28;19931;-35
2022/11/23 00:25:31;;;;;;;;;;;;;;;8.84;51.25;100491.25;5073637;28;19950;-34
2022/11/23 00:27:56;;;;;;;;;;;;;;;8.86;51.12;100489.16;5074368;28;19946;-34
2022/11/23 00:30:21;;;;;;;;;;;;;;;8.82;51.33;100492.56;5074751;28;19920;-35
2022/11/23 00:32:47;;;;;;;;;;;;;;;8.85;51.24;100484.06;5078126;28;20200;-35
2022/11/23 00:35:12;;;;;;;;;;;;;;;8.79;50.93;100485.81;5077727;28;19919;-35
2022/11/23 00:37:37;;;;;;;;;;;;;;;8.82;51.18;100484.53;5074316;28;19916;-35
2022/11/23 00:40:03;;;;;;;;;;;;;;;8.85;51.37;100481.38;5074409;28;19917;-35
2022/11/23 00:42:28;;;;;;;;;;;;;;;8.89;51.56;100483.31;5075678;28;19920;-35
2022/11/23 00:44:54;;;;;;;;;;;;;;;8.96;51.51;100486.63;5078668;28;19916;-35
2022/11/23 00:47:19;;;;;;;;;;;;;;;9.00;51.31;100492.31;5072553;28;20388;-35
2022/11/23 00:49:44;;;;;;;;;;;;;;;9.01;50.84;100486.72;5076179;28;20511;-34
2022/11/23 00:52:10;;;;;;;;;;;;;;;9.00;50.78;100484.31;5075186;28;19924;-35
2022/11/23 00:54:35;;;;;;;;;;;;;;;8.97;50.92;100485.56;5076386;28;20223;-35
2022/11/23 00:57:00;;;;;;;;;;;;;;;8.98;50.96;100489.88;5073431;28;19916;-34
2022/11/23 00:59:28;;;;;;;;;;;;;;;8.96;51.28;100488.50;5076075;28;19931;-35
2022/11/23 01:01:53;;;;;;;;;;;;;;;8.96;50.96;100493.84;5076560;28;19999;-35
2022/11/23 01:04:19;;;;;;;;;;;;;;;8.96;51.28;100499.19;5072207;28;20007;-34
2022/11/23 01:06:44;;;;;;;;;;;;;;;8.99;51.30;100493.38;5074476;28;19920;-35
2022/11/23 01:09:14;;;;;;;;;;;;;;;8.92;51.15;100493.50;5073087;28;19931;-34
2022/11/23 01:11:40;;;;;;;;;;;;;;;8.88;51.10;100496.91;5076946;28;19916;-35
2022/11/23 01:14:05;;;;;;;;;;;;;;;8.87;50.88;100500.66;5071766;28;20442;-36
2022/11/23 01:16:32;;;;;;;;;;;;;;;8.89;51.41;100498.53;5072810;28;19923;-34
2022/11/23 01:18:58;;;;;;;;;;;;;;;8.87;51.05;100495.31;5075625;28;20007;-35
2022/11/23 01:21:24;;;;;;;;;;;;;;;8.83;51.09;100494.19;5074383;28;19916;-34
2022/11/23 01:23:50;;;;;;;;;;;;;;;8.81;51.18;100501.63;5075319;28;19917;-36
2022/11/23 01:26:15;;;;;;;;;;;;;;;8.83;50.80;100503.00;5075540;28;20200;-35
2022/11/23 01:28:41;;;;;;;;;;;;;;;8.81;50.94;100507.78;5072784;28;19966;-35
2022/11/23 01:31:08;;;;;;;;;;;;;;;8.78;51.19;100505.56;5073058;28;19924;-36
2022/11/23 01:33:34;;;;;;;;;;;;;;;8.71;50.99;100508.41;5076479;28;20774;-35
2022/11/23 01:35:59;;;;;;;;;;;;;;;8.71;51.07;100510.25;5074100;28;20012;-36
2022/11/23 01:38:25;;;;;;;;;;;;;;;8.70;50.91;100512.13;5072632;28;19930;-35
2022/11/23 01:40:50;;;;;;;;;;;;;;;8.69;51.28;100502.50;5077586;28;20011;-36
2022/11/23 01:43:16;;;;;;;;;;;;;;;8.67;51.09;100496.59;5075027;28;19924;-35
2022/11/23 01:45:44;;;;;;;;;;;;;;;8.66;50.77;100489.63;5077367;28;19916;-35
2022/11/23 01:48:15;;;;;;;;;;;;;;;8.66;51.18;100491.50;5071530;28;20015;-36
2022/11/23 01:50:41;;;;;;;;;;;;;;;8.67;50.99;100491.25;5075010;28;20047;-34
2022/11/23 01:53:06;;;;;;;;;;;;;;;8.69;51.40;100491.81;5077407;28;19978;-35
2022/11/23 01:55:33;;;;;;;;;;;;;;;8.75;51.16;100495.38;5075230;28;19920;-35
2022/11/23 01:57:58;;;;;;;;;;;;;;;8.79;51.18;100499.16;5071802;28;20492;-35
2022/11/23 02:00:23;;;;;;;;;;;;;;;8.84;51.04;100498.47;5074177;28;19927;-35
2022/11/23 02:02:57;;;;;;;;;;;;;;;8.88;51.02;100494.25;5074522;28;19924;-35
2022/11/23 02:05:26;;;;;;;;;;;;;;;8.90;51.36;100498.28;5075778;28;19950;-35
2022/11/23 02:07:52;;;;;;;;;;;;;;;8.93;51.09;100499.66;5074078;28;19997;-34
2022/11/23 02:10:18;;;;;;;;;;;;;;;8.96;51.21;100504.53;5073020;28;19923;-33
2022/11/23 02:12:43;;;;;;;;;;;;;;;9.01;50.74;100504.63;5079086;28;20022;-32
2022/11/23 02:15:09;;;;;;;;;;;;;;;9.04;50.92;100504.13;5073135;28;20435;-33
2022/11/23 02:17:34;;;;;;;;;;;;;;;9.07;51.01;100511.66;5072091;28;20070;-32
2022/11/23 02:19:59;;;;;;;;;;;;;;;9.03;51.03;100516.69;5075671;28;19919;-32
2022/11/23 02:22:34;;;;;;;;;;;;;;;8.97;50.69;100514.16;5073944;28;19934;-32
2022/11/23 02:25:01;;;;;;;;;;;;;;;8.91;50.97;100517.81;5071249;28;19917;-32
2022/11/23 02:27:27;;;;;;;;;;;;;;;8.91;50.76;100517.81;5072104;28;19928;-32
2022/11/23 02:29:53;;;;;;;;;;;;;;;8.91;51.09;100523.16;5071978;28;20842;-32
2022/11/23 02:32:21;;;;;;;;;;;;;;;8.93;50.87;100524.53;5073162;28;19920;-32
2022/11/23 02:34:47;;;;;;;;;;;;;;;8.95;51.23;100524.28;5070967;28;19931;-32
2022/11/23 02:37:12;;;;;;;;;;;;;;;8.96;51.14;100526.69;5070264;28;20295;-32
2022/11/23 02:39:48;;;;;;;;;;;;;;;8.99;51.17;100536.94;5073311;28;20444;-32
2022/11/23 02:42:14;;;;;;;;;;;;;;;9.01;51.27;100540.16;5073225;28;19916;-33
2022/11/23 02:45:04;;;;;;;;;;;;;;;9.02;50.96;100540.97;5074711;28;20324;-32
2022/11/23 02:47:29;;;;;;;;;;;;;;;9.01;51.26;100534.81;5071016;28;19920;-32
2022/11/23 02:49:55;;;;;;;;;;;;;;;9.01;50.89;100534.81;5072721;28;19934;-32
2022/11/23 02:52:20;;;;;;;;;;;;;;;9.06;51.22;100536.75;5073150;28;19970;-32
2022/11/23 02:54:45;;;;;;;;;;;;;;;9.06;50.84;100534.09;5072501;28;19920;-32
2022/11/23 02:57:11;;;;;;;;;;;;;;;9.06;50.93;100536.75;5077257;28;19916;-32
2022/11/23 02:59:36;;;;;;;;;;;;;;;9.04;51.06;100536.19;5075070;28;19924;-32
2022/11/23 03:02:03;;;;;;;;;;;;;;;9.00;50.92;100527.88;5073979;28;19912;-32
2022/11/23 03:04:28;;;;;;;;;;;;;;;8.99;50.91;100533.44;5075175;28;20014;-32
2022/11/23 03:06:54;;;;;;;;;;;;;;;8.96;50.80;100541.94;5077674;28;19970;-32
2022/11/23 03:09:19;;;;;;;;;;;;;;;8.88;50.97;100534.31;5074406;28;20010;-32
2022/11/23 03:11:45;;;;;;;;;;;;;;;8.88;51.06;100534.31;5076747;28;20121;-32
2022/11/23 03:14:10;;;;;;;;;;;;;;;8.89;51.13;100542.09;5075249;28;19928;-32
2022/11/23 03:16:36;;;;;;;;;;;;;;;8.86;50.84;100547.13;5076843;28;19931;-32
2022/11/23 03:19:01;;;;;;;;;;;;;;;8.88;51.40;100545.81;5076501;28;20391;-33
2022/11/23 03:21:27;;;;;;;;;;;;;;;8.90;51.35;100545.59;5078237;28;19920;-32
2022/11/23 03:23:52;;;;;;;;;;;;;;;8.91;51.02;100544.53;5073857;28;20387;-32
2022/11/23 03:26:17;;;;;;;;;;;;;;;8.90;50.96;100549.06;5078362;28;19920;-32
2022/11/23 03:28:43;;;;;;;;;;;;;;;8.95;51.07;100545.66;5077718;28;19940;-32
2022/11/23 03:31:08;;;;;;;;;;;;;;;9.01;51.38;100555.41;5078682;28;19969;-32
2022/11/23 03:33:33;;;;;;;;;;;;;;;9.04;51.05;100549.56;5077010;28;19935;-32
2022/11/23 03:35:59;;;;;;;;;;;;;;;9.06;51.26;100542.09;5077310;28;19927;-32
2022/11/23 03:38:24;;;;;;;;;;;;;;;9.05;50.83;100545.84;5075077;28;20623;-32
2022/11/23 03:40:50;;;;;;;;;;;;;;;9.04;50.73;100539.69;5078469;28;20274;-32
2022/11/23 03:43:15;;;;;;;;;;;;;;;9.05;51.15;100545.84;5076015;28;19924;-32
2022/11/23 03:45:41;;;;;;;;;;;;;;;9.04;51.06;100549.56;5075301;28;19920;-33
2022/11/23 03:48:06;;;;;;;;;;;;;;;9.03;50.99;100543.41;5074170;28;20023;-32
2022/11/23 03:50:32;;;;;;;;;;;;;;;9.03;50.73;100538.06;5074529;28;19962;-32
2022/11/23 03:52:58;;;;;;;;;;;;;;;9.05;51.06;100545.84;5078729;28;19922;-32
2022/11/23 03:55:24;;;;;;;;;;;;;;;9.03;50.82;100540.72;5076925;28;20257;-32
2022/11/23 03:57:49;;;;;;;;;;;;;;;9.02;51.00;100546.31;5075207;28;19923;-32
2022/11/23 04:00:15;;;;;;;;;;;;;;;9.04;50.81;100542.34;5072426;28;20442;-32
2022/11/23 04:02:41;;;;;;;;;;;;;;;9.06;50.97;100544.78;5075661;28;19923;-32
2022/11/23 04:05:07;;;;;;;;;;;;;;;9.09;50.86;100549.63;5073488;28;20414;-32
2022/11/23 04:07:32;;;;;;;;;;;;;;;9.08;50.92;100550.69;5074763;28;19932;-32
2022/11/23 04:09:57;;;;;;;;;;;;;;;9.02;50.97;100549.00;5074758;28;19916;-33
2022/11/23 04:12:24;;;;;;;;;;;;;;;9.01;50.97;100555.41;5074847;28;20010;-32
2022/11/23 04:14:49;;;;;;;;;;;;;;;9.03;51.11;100553.28;5074822;28;20398;-33
2022/11/23 04:17:15;;;;;;;;;;;;;;;9.03;51.17;100551.44;5075797;28;20015;-32
2022/11/23 04:19:40;;;;;;;;;;;;;;;9.01;51.09;100550.88;5078254;28;19967;-32
2022/11/23 04:22:05;;;;;;;;;;;;;;;8.99;51.14;100550.28;5075335;28;19920;-32
2022/11/23 04:24:31;;;;;;;;;;;;;;;9.02;51.24;100551.66;5076830;28;20390;-32
2022/11/23 04:26:56;;;;;;;;;;;;;;;9.03;51.14;100547.94;5076140;28;20375;-32
2022/11/23 04:29:21;;;;;;;;;;;;;;;8.99;50.99;100547.63;5076361;28;20312;-32
2022/11/23 04:31:47;;;;;;;;;;;;;;;8.99;50.77;100541.47;5072901;28;20487;-32
2022/11/23 04:34:12;;;;;;;;;;;;;;;8.97;50.50;100541.69;5080242;28;19919;-32
2022/11/23 04:36:37;;;;;;;;;;;;;;;8.95;50.96;100541.13;5076098;28;19992;-32
2022/11/23 04:39:03;;;;;;;;;;;;;;;8.92;50.98;100527.44;5077936;28;19924;-32
2022/11/23 04:41:29;;;;;;;;;;;;;;;8.89;50.64;100539.44;5074215;28;20166;-32
2022/11/23 04:43:54;;;;;;;;;;;;;;;8.85;50.84;100534.81;5077061;28;19923;-32
2022/11/23 04:46:19;;;;;;;;;;;;;;;8.84;50.92;100538.53;5074038;28;20362;-32
2022/11/23 04:48:45;;;;;;;;;;;;;;;8.86;51.09;100533.75;5075190;28;20383;-32
2022/11/23 04:51:10;;;;;;;;;;;;;;;8.90;51.38;100532.22;5073763;28;19978;-32
2022/11/23 04:53:35;;;;;;;;;;;;;;;8.92;50.83;100540.81;5076960;28;19923;-32
2022/11/23 04:56:01;;;;;;;;;;;;;;;8.95;51.29;100525.09;5073226;28;20312;-32
2022/11/23 04:58:26;;;;;;;;;;;;;;;8.99;51.25;100526.25;5073431;28;19924;-32
2022/11/23 05:00:52;;;;;;;;;;;;;;;9.01;51.06;100532.16;5074304;28;19917;-32
2022/11/23 05:03:17;;;;;;;;;;;;;;;9.03;51.24;100530.03;5075577;28;19928;-32
2022/11/23 05:05:42;;;;;;;;;;;;;;;9.02;50.67;100532.97;5078084;28;19931;-32
2022/11/23 05:08:08;;;;;;;;;;;;;;;9.02;50.65;100540.97;5074286;28;19927;-32
2022/11/23 05:10:33;;;;;;;;;;;;;;;8.99;50.46;100541.47;5073533;28;19929;-32
2022/11/23 05:12:59;;;;;;;;;;;;;;;8.94;50.57;100541.38;5074007;28;19916;-32
2022/11/23 05:15:24;;;;;;;;;;;;;;;8.88;50.47;100540.47;5075052;28;20043;-32
2022/11/23 05:17:50;;;;;;;;;;;;;;;8.89;50.79;100541.28;5071138;28;19947;-32
2022/11/23 05:20:15;;;;;;;;;;;;;;;8.85;51.07;100540.16;5079231;28;20027;-33
2022/11/23 05:22:41;;;;;;;;;;;;;;;8.78;50.65;100540.28;5076096;28;20405;-32
2022/11/23 05:25:06;;;;;;;;;;;;;;;8.73;50.83;100543.69;5073372;28;19924;-32
2022/11/23 05:27:32;;;;;;;;;;;;;;;8.71;50.81;100550.34;5077814;28;19924;-32
2022/11/23 05:29:57;;;;;;;;;;;;;;;8.69;51.20;100545.22;5074195;28;19951;-32
2022/11/23 05:32:22;;;;;;;;;;;;;;;8.70;51.28;100544.19;5074183;28;20395;-32
2022/11/23 05:34:48;;;;;;;;;;;;;;;8.69;51.36;100542.56;5074552;28;19916;-33
2022/11/23 05:37:14;;;;;;;;;;;;;;;8.70;51.19;100546.03;5072029;28;20288;-32
2022/11/23 05:39:39;;;;;;;;;;;;;;;8.66;50.82;100548.38;5071586;28;19917;-32
2022/11/23 05:42:05;;;;;;;;;;;;;;;8.63;51.26;100546.19;5073720;28;19920;-32
2022/11/23 05:44:30;;;;;;;;;;;;;;;8.62;51.25;100544.59;5076416;28;19961;-32
2022/11/23 05:46:55;;;;;;;;;;;;;;;8.65;51.46;100549.44;5073198;28;19927;-32
2022/11/23 05:49:21;;;;;;;;;;;;;;;8.64;50.96;100545.16;5067917;28;19920;-32
2022/11/23 05:51:46;;;;;;;;;;;;;;;8.61;50.85;100548.28;5067349;28;20150;-32
2022/11/23 05:54:11;;;;;;;;;;;;;;;8.62;51.51;100555.25;5077769;28;20019;-32
2022/11/23 05:56:37;;;;;;;;;;;;;;;8.62;51.33;100552.59;5074333;28;20007;-32
2022/11/23 05:59:04;;;;;;;;;;;;;;;8.63;51.11;100556.06;5075603;28;20027;-32
2022/11/23 06:01:30;;;;;;;;;;;;;;;8.63;51.31;100550.72;5073211;28;20294;-32
2022/11/23 06:03:56;;;;;;;;;;;;;;;8.61;51.48;100553.63;5076690;28;19927;-32
2022/11/23 06:06:21;;;;;;;;;;;;;;;8.57;51.12;100555.16;5074716;28;19916;-32
2022/11/23 06:08:46;;;;;;;;;;;;;;;8.49;51.43;100558.22;5070593;28;20391;-32
2022/11/23 06:11:12;;;;;;;;;;;;;;;8.50;51.59;100561.69;5074042;28;19939;-33
2022/11/23 06:13:37;;;;;;;;;;;;;;;8.49;51.21;100560.88;5070568;28;20307;-32
2022/11/23 06:16:02;;;;;;;;;;;;;;;8.49;51.29;100558.22;5074055;28;19927;-32
2022/11/23 06:18:28;;;;;;;;;;;;;;;8.47;51.42;100555.78;5070941;28;19916;-32
2022/11/23 06:20:53;;;;;;;;;;;;;;;8.41;51.33;100551.38;5074455;28;19925;-32
2022/11/23 06:23:19;;;;;;;;;;;;;;;8.42;51.54;100557.53;5070778;28;19916;-32
2022/11/23 06:25:44;;;;;;;;;;;;;;;8.41;50.98;100554.06;5074261;28;20018;-32
2022/11/23 06:28:09;;;;;;;;;;;;;;;8.39;51.34;100558.00;5076101;28;19920;-32
2022/11/23 06:30:35;;;;;;;;;;;;;;;8.39;51.30;100561.50;5077559;28;20314;-32
2022/11/23 06:33:03;;;;;;;;;;;;;;;8.42;51.29;100565.53;5078453;28;20374;-32
2022/11/23 06:35:28;;;;;;;;;;;;;;;8.43;51.31;100564.50;5078241;28;19916;-32
2022/11/23 06:37:54;;;;;;;;;;;;;;;8.42;51.53;100560.19;5079676;28;20011;-32
2022/11/23 06:40:19;;;;;;;;;;;;;;;8.41;51.35;100563.91;5080950;28;19916;-32
2022/11/23 06:42:46;;;;;;;;;;;;;;;8.38;51.44;100561.72;5079155;28;19924;-32
2022/11/23 06:45:12;;;;;;;;;;;;;;;8.39;51.77;100566.84;5077907;28;19922;-32
2022/11/23 06:47:37;;;;;;;;;;;;;;;8.44;52.05;100566.94;5060435;28;20299;-32
2022/11/23 06:50:02;;;;;;;;;;;;;;;8.51;51.98;100568.66;5073907;28;19924;-32
2022/11/23 06:52:28;;;;;;;;;;;;;;;8.56;51.71;100579.44;5076123;28;20391;-32
2022/11/23 06:54:53;;;;;;;;;;;;;;;8.58;51.47;100578.13;5074604;28;20128;-32
2022/11/23 06:57:18;;;;;;;;;;;;;;;8.61;51.70;100577.66;5073296;28;19923;-32
2022/11/23 06:59:44;;;;;;;;;;;;;;;8.64;51.62;100582.53;5078521;28;19958;-32
2022/11/23 07:02:10;;;;;;;;;;;;;;;8.66;51.40;100591.13;5074032;28;20502;-33
2022/11/23 07:04:35;;;;;;;;;;;;;;;8.67;51.38;100597.28;5074878;28;19916;-32
2022/11/23 07:07:00;;;;;;;;;;;;;;;8.63;51.37;100596.94;5074731;28;19920;-33
2022/11/23 07:09:25;;;;;;;;;;;;;;;8.58;51.05;100596.81;5073831;28;19920;-32
2022/11/23 07:11:51;;;;;;;;;;;;;;;8.55;51.50;100599.97;5072657;28;19920;-32
2022/11/23 07:14:16;;;;;;;;;;;;;;;8.52;51.48;100600.47;5077355;28;20285;-32
2022/11/23 07:16:41;;;;;;;;;;;;;;;8.52;51.27;100597.78;5074113;28;20497;-32
2022/11/23 07:19:07;;;;;;;;;;;;;;;8.50;51.18;100601.75;5073085;28;20394;-32
2022/11/23 07:21:32;;;;;;;;;;;;;;;8.48;51.32;100605.47;5073257;28;19922;-32
2022/11/23 07:23:58;;;;;;;;;;;;;;;8.47;51.43;100614.53;5068809;28;19916;-32
2022/11/23 07:26:23;;;;;;;;;;;;;;;8.47;51.20;100613.72;5074028;28;19920;-32
2022/11/23 07:28:48;;;;;;;;;;;;;;;8.45;51.50;100607.81;5073820;28;19959;-32
2022/11/23 07:31:14;;;;;;;;;;;;;;;8.46;51.62;100612.91;5073703;28;19920;-32
2022/11/23 07:33:46;;;;;;;;;;;;;;;8.46;51.79;100617.44;5073621;28;19956;-32
2022/11/23 07:36:11;;;;;;;;;;;;;;;8.48;51.63;100618.00;5074656;28;20299;-32
2022/11/23 07:38:37;;;;;;;;;;;;;;;8.47;51.74;100619.06;5074402;28;19920;-32
2022/11/23 07:41:02;;;;;;;;;;;;;;;8.49;51.64;100632.97;5073732;28;19931;-32
2022/11/23 07:43:28;;;;;;;;;;;;;;;8.47;51.78;100617.19;5074776;28;20334;-32
2022/11/23 07:45:56;;;;;;;;;;;;;;;8.47;51.68;100616.38;5074698;28;19926;-32
2022/11/23 07:48:22;;;;;;;;;;;;;;;8.48;51.67;100628.69;5074492;28;20253;-32
2022/11/23 07:50:47;;;;;;;;;;;;;;;8.48;51.77;100632.16;5073935;28;20013;-32
2022/11/23 07:53:13;;;;;;;;;;;;;;;8.52;51.68;100623.69;5072845;28;19920;-32
2022/11/23 07:55:38;;;;;;;;;;;;;;;8.53;51.47;100623.44;5076900;28;20026;-32
2022/11/23 07:58:05;;;;;;;;;;;;;;;8.58;52.03;100620.06;5072478;28;20421;-32
2022/11/23 08:00:31;;;;;;;;;;;;;;;8.62;51.74;100621.22;5073957;28;19917;-32
2022/11/23 08:02:59;;;;;;;;;;;;;;;8.65;51.97;100621.56;5076807;28;20375;-32
2022/11/23 08:05:25;;;;;;;;;;;;;;;8.65;51.39;100620.75;5072492;28;19920;-32
2022/11/23 08:07:51;;;;;;;;;;;;;;;8.65;51.61;100616.22;5072850;28;19957;-32
2022/11/23 08:10:16;;;;;;;;;;;;;;;8.66;51.54;100627.69;5075778;28;20295;-33
2022/11/23 08:12:41;;;;;;;;;;;;;;;8.66;51.40;100625.03;5072203;28;19924;-32
2022/11/23 08:15:07;;;;;;;;;;;;;;;8.68;51.39;100629.09;5073931;28;19923;-32
2022/11/23 08:17:32;;;;;;;;;;;;;;;8.68;51.30;100629.09;5074221;28;19920;-32
2022/11/23 08:19:58;;;;;;;;;;;;;;;8.71;51.58;100627.78;5075540;28;20291;-32
2022/11/23 08:22:23;;;;;;;;;;;;;;;8.69;51.50;100630.69;5072645;28;20287;-32
2022/11/23 08:24:48;;;;;;;;;;;;;;;8.67;51.40;100635.47;5073737;28;20044;-32
2022/11/23 08:27:14;;;;;;;;;;;;;;;8.66;51.60;100630.38;5075157;28;20372;-32
2022/11/23 08:29:39;;;;;;;;;;;;;;;8.69;51.62;100629.91;5075607;28;19917;-32
2022/11/23 08:32:05;;;;;;;;;;;;;;;8.74;51.74;100632.66;5073454;28;19920;-33
2022/11/23 08:34:30;;;;;;;;;;;;;;;8.81;51.67;100638.69;5076229;28;19966;-33
2022/11/23 08:36:55;;;;;;;;;;;;;;;8.84;51.53;100627.50;5076923;28;20332;-32
2022/11/23 08:39:21;;;;;;;;;;;;;;;8.86;51.70;100632.63;5075885;28;19920;-33
2022/11/23 08:41:46;;;;;;;;;;;;;;;8.88;51.67;100636.66;5073245;28;19924;-33
2022/11/23 08:44:12;;;;;;;;;;;;;;;8.90;51.84;100639.91;5072501;28;20106;-32
2022/11/23 08:46:37;;;;;;;;;;;;;;;8.90;51.82;100631.88;5073776;28;19917;-32
2022/11/23 08:49:03;;;;;;;;;;;;;;;8.97;51.66;100634.41;5072533;28;19927;-32
2022/11/23 08:51:29;;;;;;;;;;;;;;;9.04;51.86;100646.59;5075225;28;19917;-32
2022/11/23 08:53:54;;;;;;;;;;;;;;;9.09;51.46;100637.84;5076456;28;19920;-32
2022/11/23 08:56:19;;;;;;;;;;;;;;;9.14;51.79;100640.59;5073137;28;19924;-33
2022/11/23 08:58:45;;;;;;;;;;;;;;;9.20;51.46;100650.34;5074292;28;19924;-33
2022/11/23 09:01:11;;;;;;;;;;;;;;;9.23;51.31;100646.38;5075213;28;19924;-33
2022/11/23 09:03:37;;;;;;;;;;;;;;;9.19;51.02;100639.88;5076159;28;19926;-32
2022/11/23 09:06:03;;;;;;;;;;;;;;;9.23;51.25;100647.19;5074187;28;20298;-33
2022/11/23 09:08:28;;;;;;;;;;;;;;;9.26;51.45;100646.69;5073801;28;20433;-33
2022/11/23 09:10:53;;;;;;;;;;;;;;;9.26;51.15;100646.69;5075617;28;20394;-33
2022/11/23 09:13:19;;;;;;;;;;;;;;;9.21;51.33;100651.16;5078761;28;20270;-33
2022/11/23 09:15:45;;;;;;;;;;;;;;;9.21;50.92;100646.59;5075450;28;19920;-33
2022/11/23 09:18:10;;;;;;;;;;;;;;;9.20;51.00;100649.53;5075154;28;19920;-32
2022/11/23 09:20:38;;;;;;;;;;;;;;;9.20;51.00;100653.00;5071935;28;20292;-32
2022/11/23 09:23:03;;;;;;;;;;;;;;;9.23;51.09;100649.84;5075355;28;19916;-33
2022/11/23 09:25:28;;;;;;;;;;;;;;;9.21;50.97;100654.63;5075861;28;19916;-32
2022/11/23 09:27:58;;;;;;;;;;;;;;;9.20;51.18;100645.00;5072916;28;20046;-32
2022/11/23 09:30:23;;;;;;;;;;;;;;;9.19;51.44;100646.03;5075463;28;20379;-33
2022/11/23 09:32:49;;;;;;;;;;;;;;;9.18;51.00;100652.44;5073227;28;19916;-33
2022/11/23 09:35:14;;;;;;;;;;;;;;;9.17;50.92;100650.81;5071939;28;19936;-33
2022/11/23 09:37:39;;;;;;;;;;;;;;;9.15;51.18;100647.56;5073052;28;19920;-33
2022/11/23 09:40:06;;;;;;;;;;;;;;;9.18;51.18;100640.94;5073503;28;19943;-33
2022/11/23 09:42:50;;;;;;;;;;;;;;;9.11;50.91;100637.59;5072654;28;19928;-33
2022/11/23 09:45:18;;;;;;;;;;;;;;;9.11;51.21;100640.25;5075342;28;20368;-32
2022/11/23 09:47:53;;;;;;;;;;;;;;;9.11;50.99;100635.72;5073874;28;19920;-33
2022/11/23 09:50:44;;;;;;;;;;;;;;;9.09;50.99;100635.16;5079608;28;19923;-33
2022/11/23 09:53:12;;;;;;;;;;;;;;;9.07;51.20;100640.75;5073159;28;19963;-33
2022/11/23 09:55:44;;;;;;;;;;;;;;;9.05;50.94;100634.03;5074530;28;19920;-33
2022/11/23 09:58:15;;;;;;;;;;;;;;;9.06;51.31;100633.78;5073361;28;20258;-32
2022/11/23 10:00:46;;;;;;;;;;;;;;;9.12;51.24;100625.84;5073741;28;19920;-32
2022/11/23 10:03:15;;;;;;;;;;;;;;;9.13;51.15;100620.25;5075187;28;19985;-33
2022/11/23 10:05:43;;;;;;;;;;;;;;;9.13;50.98;100625.59;5077787;28;19960;-32
2022/11/23 10:08:44;;;;;;;;;;;;;;;9.19;51.37;100621.97;5080144;28;19920;-33
2022/11/23 10:11:12;;;;;;;;;;;;;;;9.23;51.25;100627.66;4985968;28;19922;-32
2022/11/23 10:13:42;;;;;;;;;;;;;;;9.26;51.13;100627.16;5063376;28;19916;-33
2022/11/23 10:16:16;;;;;;;;;;;;;;;9.31;51.09;100632.59;5076407;28;19920;-33
2022/11/23 10:19:01;;;;;;;;;;;;;;;9.36;51.47;100627.34;5077322;28;20011;-32
2022/11/23 10:21:31;;;;;;;;;;;;;;;9.40;51.29;100631.16;5080517;28;20077;-32
2022/11/23 10:24:08;;;;;;;;;;;;;;;9.45;51.22;100620.53;5080988;28;20452;-33
2022/11/23 10:26:36;;;;;;;;;;;;;;;9.43;51.00;100627.97;5075911;28;19917;-33
2022/11/23 10:29:10;;;;;;;;;;;;;;;9.45;51.10;100633.09;5078209;28;19916;-33
2022/11/23 10:31:36;;;;;;;;;;;;;;;9.46;51.29;100632.84;5076008;28;19916;-33
2022/11/23 10:34:09;;;;;;;;;;;;;;;9.49;50.96;100631.53;5079742;28;20380;-33
2022/11/23 10:36:35;;;;;;;;;;;;;;;9.48;50.81;100640.63;5061254;28;20019;-32
2022/11/23 10:39:01;;;;;;;;;;;;;;;9.48;50.91;100636.06;5077644;28;20003;-32
2022/11/23 10:41:28;;;;;;;;;;;;;;;9.50;51.00;100638.50;5079213;28;19928;-32
2022/11/23 10:43:53;;;;;;;;;;;;;;;9.48;50.94;100637.94;5085916;28;19926;-33
2022/11/23 10:46:21;;;;;;;;;;;;;;;9.49;51.33;100632.34;5075361;28;20007;-38
2022/11/23 10:48:47;;;;;;;;;;;;;;;9.52;51.29;100621.19;5075495;28;19928;-33
2022/11/23 10:51:19;;;;;;;;;;;;;;;9.52;51.27;100620.38;5075423;28;20544;-33
2022/11/23 10:53:50;;;;;;;;;;;;;;;9.58;50.91;100622.06;5078640;28;20498;-33
2022/11/23 10:56:15;;;;;;;;;;;;;;;9.61;50.87;100618.91;5077424;28;19916;-33
2022/11/23 10:58:43;;;;;;;;;;;;;;;9.60;50.94;100619.97;5080741;28;19946;-33
2022/11/23 11:01:13;;;;;;;;;;;;;;;9.59;51.23;100616.47;5075464;28;19916;-32
2022/11/23 11:03:39;;;;;;;;;;;;;;;9.59;51.13;100615.66;5077844;28;19999;-33
2022/11/23 11:06:04;;;;;;;;;;;;;;;9.60;50.76;100611.94;5077831;28;20007;-33
2022/11/23 11:08:31;;;;;;;;;;;;;;;9.63;50.90;100622.13;5076349;28;19928;-33
2022/11/23 11:10:57;;;;;;;;;;;;;;;9.64;50.86;100619.22;5075516;28;19927;-32
2022/11/23 11:13:24;;;;;;;;;;;;;;;9.71;51.17;100616.38;5080172;28;19920;-33
2022/11/23 11:15:53;;;;;;;;;;;;;;;9.76;51.00;100621.81;5081420;28;19920;-33
2022/11/23 11:18:18;;;;;;;;;;;;;;;9.78;51.08;100610.84;5075509;28;20379;-33
2022/11/23 11:20:44;;;;;;;;;;;;;;;9.81;51.18;100613.84;5073920;28;19928;-33
2022/11/23 11:23:17;;;;;;;;;;;;;;;9.83;50.70;100609.06;5074070;28;19926;-32
2022/11/23 11:25:43;;;;;;;;;;;;;;;9.85;51.00;100608.81;5077713;28;20311;-33
2022/11/23 11:28:38;;;;;;;;;;;;;;;9.86;50.61;100603.19;5077451;28;19932;-33
2022/11/23 11:31:22;;;;;;;;;;;;;;;9.88;50.88;100598.44;5057789;28;20379;-33
2022/11/23 11:34:07;;;;;;;;;;;;;;;9.84;50.99;100602.66;5074737;28;19924;-33
2022/11/23 11:36:37;;;;;;;;;;;;;;;9.91;51.03;100591.78;5063860;28;20341;-33
2022/11/23 11:39:09;;;;;;;;;;;;;;;9.93;50.63;100592.34;5076030;28;20311;-33
2022/11/23 11:41:36;;;;;;;;;;;;;;;9.97;50.88;100590.78;5077218;28;20279;-33
2022/11/23 11:44:06;;;;;;;;;;;;;;;10.06;50.91;100588.50;5074731;28;19924;-33
2022/11/23 11:46:39;;;;;;;;;;;;;;;10.09;51.04;100593.34;5082386;28;20006;-32
2022/11/23 11:49:17;;;;;;;;;;;;;;;10.16;50.64;100602.00;5074467;28;19917;-33
2022/11/23 11:51:45;;;;;;;;;;;;;;;10.19;51.08;100598.81;5075044;28;20304;-32
2022/11/23 11:54:16;;;;;;;;;;;;;;;10.19;50.91;100604.19;5082814;28;19942;-33
2022/11/23 11:56:43;;;;;;;;;;;;;;;10.19;50.83;100601.50;5074829;28;19916;-33
2022/11/23 11:59:41;;;;;;;;;;;;;;;10.17;50.56;100599.06;5074813;28;19962;-33
2022/11/23 12:02:13;;;;;;;;;;;;;;;10.23;50.74;100608.00;5057805;28;19974;-33
2022/11/23 12:04:52;;;;;;;;;;;;;;;10.26;50.68;100596.81;5074421;28;19959;-33
2022/11/23 12:07:23;;;;;;;;;;;;;;;10.27;50.47;100601.09;5076708;28;19928;-33
2022/11/23 12:09:51;;;;;;;;;;;;;;;10.29;50.67;100594.44;5079900;28;20345;-33
2022/11/23 12:12:18;;;;;;;;;;;;;;;10.33;50.41;100593.94;5079863;28;19923;-33
2022/11/23 12:14:45;;;;;;;;;;;;;;;10.29;50.69;100589.09;5074258;28;20349;-33
2022/11/23 12:17:23;;;;;;;;;;;;;;;10.38;50.99;100586.75;5075059;28;19916;-33
2022/11/23 12:19:48;;;;;;;;;;;;;;;10.39;50.51;100588.38;5075645;28;20007;-33
2022/11/23 12:22:32;;;;;;;;;;;;;;;10.44;50.78;100601.84;5074402;28;20022;-33
2022/11/23 12:25:16;;;;;;;;;;;;;;;10.47;50.29;100604.03;5078027;28;20063;-33
2022/11/23 12:27:44;;;;;;;;;;;;;;;10.46;50.25;100599.72;5069915;28;19978;-33
2022/11/23 12:30:13;;;;;;;;;;;;;;;10.44;50.53;100590.34;5074087;28;20396;-33
2022/11/23 12:32:38;;;;;;;;;;;;;;;10.40;50.34;100595.34;5074729;28;19912;-33
2022/11/23 12:35:19;;;;;;;;;;;;;;;10.38;50.09;100592.13;5076977;28;19954;-32
2022/11/23 12:37:45;;;;;;;;;;;;;;;10.41;50.63;100588.13;5068698;28;20402;-33
2022/11/23 12:40:22;;;;;;;;;;;;;;;10.47;50.72;100589.81;5069913;28;19963;-33
2022/11/23 12:42:51;;;;;;;;;;;;;;;10.52;50.66;100590.69;5074629;28;19924;-32
2022/11/23 12:45:22;;;;;;;;;;;;;;;10.60;50.49;100597.47;5070980;28;20364;-33